sensor_id;sensor_type;location;lat;lon;timestamp;P1;durP1;ratioP1;P2;durP2;ratioP2
76157;SDS011;64907;51.574;6.502;2023-04-25T00:01:33;18.25;;;7.95;;
76157;SDS011;64907;51.574;6.502;2023-04-25T00:04:00;18.65;;;9.05;;
76157;SDS011;64907;51.574;6.502;2023-04-25T00:06:26;17.17;;;8.23;;
76157;SDS011;64907;51.574;6.502;2023-04-25T00:08:51;19.65;;;8.35;;
76157;SDS011;64907;51.574;6.502;2023-04-25T00:11:17;17.95;;;8.27;;
76157;SDS011;64907;51.574;6.502;2023-04-25T00:13:42;23.73;;;7.97;;
76157;SDS011;64907;51.574;6.502;2023-04-25T00:16:07;22.00;;;8.48;;
76157;SDS011;64907;51.574;6.502;2023-04-25T00:18:32;19.30;;;7.88;;
76157;SDS011;64907;51.574;6.502;2023-04-25T00:20:58;18.67;;;9.73;;
76157;SDS011;64907;51.574;6.502;2023-04-25T00:23:23;15.73;;;8.38;;
76157;SDS011;64907;51.574;6.502;2023-04-25T00:25:49;15.20;;;7.53;;
76157;SDS011;64907;51.574;6.502;2023-04-25T00:28:14;21.33;;;9.05;;
76157;SDS011;64907;51.574;6.502;2023-04-25T00:30:40;15.23;;;7.90;;
76157;SDS011;64907;51.574;6.502;2023-04-25T00:33:06;19.05;;;8.00;;
76157;SDS011;64907;51.574;6.502;2023-04-25T00:35:31;21.15;;;7.57;;
76157;SDS011;64907;51.574;6.502;2023-04-25T00:37:56;22.38;;;8.40;;
76157;SDS011;64907;51.574;6.502;2023-04-25T00:40:21;18.05;;;7.57;;
76157;SDS011;64907;51.574;6.502;2023-04-25T00:42:47;24.65;;;9.07;;
76157;SDS011;64907;51.574;6.502;2023-04-25T00:45:12;20.60;;;8.52;;
76157;SDS011;64907;51.574;6.502;2023-04-25T00:47:38;18.20;;;9.70;;
76157;SDS011;64907;51.574;6.502;2023-04-25T00:50:05;14.82;;;7.10;;
76157;SDS011;64907;51.574;6.502;2023-04-25T00:52:30;18.83;;;8.55;;
76157;SDS011;64907;51.574;6.502;2023-04-25T00:54:56;22.75;;;8.52;;
76157;SDS011;64907;51.574;6.502;2023-04-25T00:57:21;17.67;;;9.02;;
76157;SDS011;64907;51.574;6.502;2023-04-25T00:59:46;15.07;;;7.68;;
76157;SDS011;64907;51.574;6.502;2023-04-25T01:02:12;21.92;;;8.07;;
76157;SDS011;64907;51.574;6.502;2023-04-25T01:04:37;15.43;;;7.55;;
76157;SDS011;64907;51.574;6.502;2023-04-25T01:07:02;19.75;;;8.18;;
76157;SDS011;64907;51.574;6.502;2023-04-25T01:09:28;20.00;;;7.90;;
76157;SDS011;64907;51.574;6.502;2023-04-25T01:11:54;20.77;;;7.63;;
76157;SDS011;64907;51.574;6.502;2023-04-25T01:14:21;13.85;;;6.75;;
76157;SDS011;64907;51.574;6.502;2023-04-25T01:16:46;11.13;;;7.05;;
76157;SDS011;64907;51.574;6.502;2023-04-25T01:19:11;15.30;;;6.50;;
76157;SDS011;64907;51.574;6.502;2023-04-25T01:21:41;14.82;;;6.65;;
76157;SDS011;64907;51.574;6.502;2023-04-25T01:24:06;17.58;;;6.95;;
76157;SDS011;64907;51.574;6.502;2023-04-25T01:26:31;15.80;;;7.20;;
76157;SDS011;64907;51.574;6.502;2023-04-25T01:28:57;12.07;;;6.88;;
76157;SDS011;64907;51.574;6.502;2023-04-25T01:31:22;18.65;;;7.50;;
76157;SDS011;64907;51.574;6.502;2023-04-25T01:33:48;13.18;;;6.68;;
76157;SDS011;64907;51.574;6.502;2023-04-25T01:36:13;12.63;;;6.40;;
76157;SDS011;64907;51.574;6.502;2023-04-25T01:38:39;15.43;;;7.13;;
76157;SDS011;64907;51.574;6.502;2023-04-25T01:41:05;19.35;;;6.60;;
76157;SDS011;64907;51.574;6.502;2023-04-25T01:43:30;17.15;;;7.50;;
76157;SDS011;64907;51.574;6.502;2023-04-25T01:45:55;14.80;;;7.70;;
76157;SDS011;64907;51.574;6.502;2023-04-25T01:48:21;16.23;;;7.43;;
76157;SDS011;64907;51.574;6.502;2023-04-25T01:50:47;16.20;;;7.05;;
76157;SDS011;64907;51.574;6.502;2023-04-25T01:53:13;14.45;;;6.40;;
76157;SDS011;64907;51.574;6.502;2023-04-25T01:55:38;10.95;;;7.25;;
76157;SDS011;64907;51.574;6.502;2023-04-25T01:58:04;19.70;;;7.93;;
76157;SDS011;64907;51.574;6.502;2023-04-25T02:00:34;16.92;;;6.47;;
76157;SDS011;64907;51.574;6.502;2023-04-25T02:02:59;17.33;;;7.20;;
76157;SDS011;64907;51.574;6.502;2023-04-25T02:05:25;21.35;;;7.03;;
76157;SDS011;64907;51.574;6.502;2023-04-25T02:07:50;18.80;;;7.10;;
76157;SDS011;64907;51.574;6.502;2023-04-25T02:10:15;16.48;;;7.13;;
76157;SDS011;64907;51.574;6.502;2023-04-25T02:12:40;21.20;;;6.78;;
76157;SDS011;64907;51.574;6.502;2023-04-25T02:15:06;14.65;;;6.68;;
76157;SDS011;64907;51.574;6.502;2023-04-25T02:17:31;20.80;;;7.97;;
76157;SDS011;64907;51.574;6.502;2023-04-25T02:19:56;16.88;;;7.47;;
76157;SDS011;64907;51.574;6.502;2023-04-25T02:22:21;19.55;;;7.50;;
76157;SDS011;64907;51.574;6.502;2023-04-25T02:24:47;22.50;;;7.38;;
76157;SDS011;64907;51.574;6.502;2023-04-25T02:27:12;17.13;;;6.80;;
76157;SDS011;64907;51.574;6.502;2023-04-25T02:29:37;16.65;;;7.75;;
76157;SDS011;64907;51.574;6.502;2023-04-25T02:32:03;20.15;;;7.55;;
76157;SDS011;64907;51.574;6.502;2023-04-25T02:34:28;15.75;;;7.53;;
76157;SDS011;64907;51.574;6.502;2023-04-25T02:36:53;18.92;;;7.70;;
76157;SDS011;64907;51.574;6.502;2023-04-25T02:39:18;13.18;;;6.32;;
76157;SDS011;64907;51.574;6.502;2023-04-25T02:41:43;17.17;;;6.60;;
76157;SDS011;64907;51.574;6.502;2023-04-25T02:44:09;20.70;;;7.80;;
76157;SDS011;64907;51.574;6.502;2023-04-25T02:46:34;19.42;;;8.55;;
76157;SDS011;64907;51.574;6.502;2023-04-25T02:48:59;17.42;;;7.07;;
76157;SDS011;64907;51.574;6.502;2023-04-25T02:51:25;17.50;;;6.95;;
76157;SDS011;64907;51.574;6.502;2023-04-25T02:53:51;22.33;;;7.72;;
76157;SDS011;64907;51.574;6.502;2023-04-25T02:56:16;17.35;;;7.25;;
76157;SDS011;64907;51.574;6.502;2023-04-25T02:58:41;19.35;;;7.57;;
76157;SDS011;64907;51.574;6.502;2023-04-25T03:01:07;16.67;;;6.83;;
76157;SDS011;64907;51.574;6.502;2023-04-25T03:03:32;18.90;;;7.78;;
76157;SDS011;64907;51.574;6.502;2023-04-25T03:05:57;17.35;;;7.50;;
76157;SDS011;64907;51.574;6.502;2023-04-25T03:08:22;16.38;;;7.88;;
76157;SDS011;64907;51.574;6.502;2023-04-25T03:10:48;13.25;;;7.72;;
76157;SDS011;64907;51.574;6.502;2023-04-25T03:13:14;16.88;;;7.45;;
76157;SDS011;64907;51.574;6.502;2023-04-25T03:15:40;23.13;;;7.43;;
76157;SDS011;64907;51.574;6.502;2023-04-25T03:18:05;21.05;;;7.78;;
76157;SDS011;64907;51.574;6.502;2023-04-25T03:20:30;28.17;;;8.25;;
76157;SDS011;64907;51.574;6.502;2023-04-25T03:22:55;21.13;;;7.90;;
76157;SDS011;64907;51.574;6.502;2023-04-25T03:25:21;22.55;;;8.10;;
76157;SDS011;64907;51.574;6.502;2023-04-25T03:27:46;20.73;;;8.00;;
76157;SDS011;64907;51.574;6.502;2023-04-25T03:30:11;17.00;;;7.60;;
76157;SDS011;64907;51.574;6.502;2023-04-25T03:32:36;24.85;;;8.65;;
76157;SDS011;64907;51.574;6.502;2023-04-25T03:35:02;20.10;;;8.27;;
76157;SDS011;64907;51.574;6.502;2023-04-25T03:37:27;27.65;;;8.68;;
76157;SDS011;64907;51.574;6.502;2023-04-25T03:39:52;20.10;;;7.90;;
76157;SDS011;64907;51.574;6.502;2023-04-25T03:42:17;20.48;;;8.70;;
76157;SDS011;64907;51.574;6.502;2023-04-25T03:44:42;19.00;;;8.30;;
76157;SDS011;64907;51.574;6.502;2023-04-25T03:47:08;20.75;;;8.52;;
76157;SDS011;64907;51.574;6.502;2023-04-25T03:49:34;25.20;;;9.52;;
76157;SDS011;64907;51.574;6.502;2023-04-25T03:51:59;24.20;;;9.35;;
76157;SDS011;64907;51.574;6.502;2023-04-25T03:54:25;20.10;;;8.85;;
76157;SDS011;64907;51.574;6.502;2023-04-25T03:56:50;28.02;;;8.85;;
76157;SDS011;64907;51.574;6.502;2023-04-25T03:59:15;23.40;;;7.85;;
76157;SDS011;64907;51.574;6.502;2023-04-25T04:01:40;23.08;;;7.95;;
76157;SDS011;64907;51.574;6.502;2023-04-25T04:04:06;29.63;;;8.25;;
76157;SDS011;64907;51.574;6.502;2023-04-25T04:06:31;28.83;;;9.07;;
76157;SDS011;64907;51.574;6.502;2023-04-25T04:08:56;25.60;;;9.35;;
76157;SDS011;64907;51.574;6.502;2023-04-25T04:11:21;28.75;;;9.20;;
76157;SDS011;64907;51.574;6.502;2023-04-25T04:13:47;17.73;;;8.85;;
76157;SDS011;64907;51.574;6.502;2023-04-25T04:16:12;20.30;;;8.50;;
76157;SDS011;64907;51.574;6.502;2023-04-25T04:18:37;27.85;;;10.00;;
76157;SDS011;64907;51.574;6.502;2023-04-25T04:21:02;28.90;;;10.70;;
76157;SDS011;64907;51.574;6.502;2023-04-25T04:23:27;28.45;;;9.75;;
76157;SDS011;64907;51.574;6.502;2023-04-25T04:25:53;22.63;;;8.98;;
76157;SDS011;64907;51.574;6.502;2023-04-25T04:28:19;24.33;;;9.45;;
76157;SDS011;64907;51.574;6.502;2023-04-25T04:30:44;20.20;;;9.27;;
76157;SDS011;64907;51.574;6.502;2023-04-25T04:33:10;19.13;;;9.40;;
76157;SDS011;64907;51.574;6.502;2023-04-25T04:35:36;29.25;;;9.73;;
76157;SDS011;64907;51.574;6.502;2023-04-25T04:38:01;25.73;;;9.88;;
76157;SDS011;64907;51.574;6.502;2023-04-25T04:40:26;26.45;;;8.75;;
76157;SDS011;64907;51.574;6.502;2023-04-25T04:42:51;22.02;;;9.45;;
76157;SDS011;64907;51.574;6.502;2023-04-25T04:45:18;18.73;;;8.85;;
76157;SDS011;64907;51.574;6.502;2023-04-25T04:47:43;24.20;;;10.33;;
76157;SDS011;64907;51.574;6.502;2023-04-25T04:50:09;19.90;;;8.95;;
76157;SDS011;64907;51.574;6.502;2023-04-25T04:52:35;22.27;;;8.85;;
76157;SDS011;64907;51.574;6.502;2023-04-25T04:55:00;24.83;;;8.60;;
76157;SDS011;64907;51.574;6.502;2023-04-25T04:57:25;24.02;;;9.50;;
76157;SDS011;64907;51.574;6.502;2023-04-25T04:59:51;26.75;;;9.30;;
76157;SDS011;64907;51.574;6.502;2023-04-25T05:02:16;23.42;;;9.20;;
76157;SDS011;64907;51.574;6.502;2023-04-25T05:04:42;16.88;;;8.18;;
76157;SDS011;64907;51.574;6.502;2023-04-25T05:07:07;21.52;;;8.57;;
76157;SDS011;64907;51.574;6.502;2023-04-25T05:09:32;45.33;;;9.48;;
76157;SDS011;64907;51.574;6.502;2023-04-25T05:11:57;17.33;;;7.80;;
76157;SDS011;64907;51.574;6.502;2023-04-25T05:14:22;17.35;;;8.55;;
76157;SDS011;64907;51.574;6.502;2023-04-25T05:16:48;21.73;;;8.27;;
76157;SDS011;64907;51.574;6.502;2023-04-25T05:19:13;16.70;;;7.13;;
76157;SDS011;64907;51.574;6.502;2023-04-25T05:21:39;18.10;;;7.75;;
76157;SDS011;64907;51.574;6.502;2023-04-25T05:24:04;20.17;;;7.13;;
76157;SDS011;64907;51.574;6.502;2023-04-25T05:26:29;17.73;;;7.22;;
76157;SDS011;64907;51.574;6.502;2023-04-25T05:28:56;17.85;;;6.97;;
76157;SDS011;64907;51.574;6.502;2023-04-25T05:31:21;17.35;;;7.20;;
76157;SDS011;64907;51.574;6.502;2023-04-25T05:33:46;18.37;;;7.57;;
76157;SDS011;64907;51.574;6.502;2023-04-25T05:36:12;21.40;;;7.20;;
76157;SDS011;64907;51.574;6.502;2023-04-25T05:38:37;18.90;;;7.83;;
76157;SDS011;64907;51.574;6.502;2023-04-25T05:41:02;14.30;;;6.85;;
76157;SDS011;64907;51.574;6.502;2023-04-25T05:43:27;14.98;;;7.35;;
76157;SDS011;64907;51.574;6.502;2023-04-25T05:45:52;18.45;;;8.20;;
76157;SDS011;64907;51.574;6.502;2023-04-25T05:48:18;11.98;;;6.97;;
76157;SDS011;64907;51.574;6.502;2023-04-25T05:50:43;21.52;;;7.90;;
76157;SDS011;64907;51.574;6.502;2023-04-25T05:53:08;14.55;;;7.20;;
76157;SDS011;64907;51.574;6.502;2023-04-25T05:55:34;18.50;;;8.27;;
76157;SDS011;64907;51.574;6.502;2023-04-25T05:57:59;17.23;;;8.20;;
76157;SDS011;64907;51.574;6.502;2023-04-25T06:00:25;22.48;;;8.05;;
76157;SDS011;64907;51.574;6.502;2023-04-25T06:02:50;23.70;;;8.88;;
76157;SDS011;64907;51.574;6.502;2023-04-25T06:05:15;18.95;;;7.05;;
76157;SDS011;64907;51.574;6.502;2023-04-25T06:07:41;18.80;;;7.65;;
76157;SDS011;64907;51.574;6.502;2023-04-25T06:10:06;17.10;;;7.35;;
76157;SDS011;64907;51.574;6.502;2023-04-25T06:12:32;14.27;;;7.15;;
76157;SDS011;64907;51.574;6.502;2023-04-25T06:14:58;19.75;;;6.85;;
76157;SDS011;64907;51.574;6.502;2023-04-25T06:17:23;16.73;;;7.50;;
76157;SDS011;64907;51.574;6.502;2023-04-25T06:19:48;21.08;;;7.45;;
76157;SDS011;64907;51.574;6.502;2023-04-25T06:22:13;21.10;;;7.80;;
76157;SDS011;64907;51.574;6.502;2023-04-25T06:24:39;19.85;;;7.97;;
76157;SDS011;64907;51.574;6.502;2023-04-25T06:27:04;22.27;;;8.02;;
76157;SDS011;64907;51.574;6.502;2023-04-25T06:29:30;19.95;;;7.13;;
76157;SDS011;64907;51.574;6.502;2023-04-25T06:31:55;12.23;;;5.63;;
76157;SDS011;64907;51.574;6.502;2023-04-25T06:34:20;18.52;;;6.50;;
76157;SDS011;64907;51.574;6.502;2023-04-25T06:36:45;15.05;;;5.60;;
76157;SDS011;64907;51.574;6.502;2023-04-25T06:39:10;14.17;;;5.57;;
76157;SDS011;64907;51.574;6.502;2023-04-25T06:41:36;9.13;;;5.30;;
76157;SDS011;64907;51.574;6.502;2023-04-25T06:44:01;20.05;;;5.38;;
76157;SDS011;64907;51.574;6.502;2023-04-25T06:46:26;14.27;;;5.72;;
76157;SDS011;64907;51.574;6.502;2023-04-25T06:48:52;13.90;;;5.60;;
76157;SDS011;64907;51.574;6.502;2023-04-25T06:51:17;15.63;;;5.00;;
76157;SDS011;64907;51.574;6.502;2023-04-25T06:53:42;10.55;;;5.15;;
76157;SDS011;64907;51.574;6.502;2023-04-25T06:56:07;14.65;;;5.13;;
76157;SDS011;64907;51.574;6.502;2023-04-25T06:58:33;12.55;;;4.90;;
76157;SDS011;64907;51.574;6.502;2023-04-25T07:00:58;14.13;;;5.18;;
76157;SDS011;64907;51.574;6.502;2023-04-25T07:03:23;14.52;;;5.18;;
76157;SDS011;64907;51.574;6.502;2023-04-25T07:05:49;12.98;;;4.53;;
76157;SDS011;64907;51.574;6.502;2023-04-25T07:08:14;14.52;;;4.72;;
76157;SDS011;64907;51.574;6.502;2023-04-25T07:10:39;13.15;;;4.90;;
76157;SDS011;64907;51.574;6.502;2023-04-25T07:13:05;15.98;;;4.78;;
76157;SDS011;64907;51.574;6.502;2023-04-25T07:15:30;12.32;;;4.75;;
76157;SDS011;64907;51.574;6.502;2023-04-25T07:17:55;11.50;;;4.23;;
76157;SDS011;64907;51.574;6.502;2023-04-25T07:20:22;9.23;;;4.03;;
76157;SDS011;64907;51.574;6.502;2023-04-25T07:22:48;13.90;;;3.92;;
76157;SDS011;64907;51.574;6.502;2023-04-25T07:25:13;11.75;;;3.40;;
76157;SDS011;64907;51.574;6.502;2023-04-25T07:27:38;10.85;;;4.68;;
76157;SDS011;64907;51.574;6.502;2023-04-25T07:30:04;7.20;;;3.00;;
76157;SDS011;64907;51.574;6.502;2023-04-25T07:32:29;12.00;;;3.40;;
76157;SDS011;64907;51.574;6.502;2023-04-25T07:34:55;6.13;;;3.63;;
76157;SDS011;64907;51.574;6.502;2023-04-25T07:37:20;9.07;;;3.55;;
76157;SDS011;64907;51.574;6.502;2023-04-25T07:39:45;9.33;;;3.47;;
76157;SDS011;64907;51.574;6.502;2023-04-25T07:42:13;12.77;;;3.00;;
76157;SDS011;64907;51.574;6.502;2023-04-25T07:44:39;6.20;;;2.72;;
76157;SDS011;64907;51.574;6.502;2023-04-25T07:47:08;6.70;;;2.95;;
76157;SDS011;64907;51.574;6.502;2023-04-25T07:49:34;10.15;;;3.10;;
76157;SDS011;64907;51.574;6.502;2023-04-25T07:51:59;8.07;;;3.50;;
76157;SDS011;64907;51.574;6.502;2023-04-25T07:54:25;7.07;;;2.90;;
76157;SDS011;64907;51.574;6.502;2023-04-25T07:56:50;6.60;;;3.00;;
76157;SDS011;64907;51.574;6.502;2023-04-25T07:59:15;11.43;;;3.20;;
76157;SDS011;64907;51.574;6.502;2023-04-25T08:01:41;4.23;;;3.17;;
76157;SDS011;64907;51.574;6.502;2023-04-25T08:04:06;6.50;;;2.45;;
76157;SDS011;64907;51.574;6.502;2023-04-25T08:06:31;10.15;;;3.17;;
76157;SDS011;64907;51.574;6.502;2023-04-25T08:08:57;11.85;;;3.20;;
76157;SDS011;64907;51.574;6.502;2023-04-25T08:11:22;4.53;;;2.10;;
76157;SDS011;64907;51.574;6.502;2023-04-25T08:13:47;8.97;;;2.40;;
76157;SDS011;64907;51.574;6.502;2023-04-25T08:16:12;7.07;;;2.20;;
76157;SDS011;64907;51.574;6.502;2023-04-25T08:18:37;9.93;;;3.10;;
76157;SDS011;64907;51.574;6.502;2023-04-25T08:21:02;10.40;;;3.13;;
76157;SDS011;64907;51.574;6.502;2023-04-25T08:23:28;5.90;;;2.33;;
76157;SDS011;64907;51.574;6.502;2023-04-25T08:25:53;8.63;;;2.85;;
76157;SDS011;64907;51.574;6.502;2023-04-25T08:28:18;4.72;;;2.05;;
76157;SDS011;64907;51.574;6.502;2023-04-25T08:30:43;8.83;;;3.07;;
76157;SDS011;64907;51.574;6.502;2023-04-25T08:33:09;7.87;;;2.53;;
76157;SDS011;64907;51.574;6.502;2023-04-25T08:35:35;9.10;;;2.67;;
76157;SDS011;64907;51.574;6.502;2023-04-25T08:38:00;4.78;;;1.77;;
76157;SDS011;64907;51.574;6.502;2023-04-25T08:40:26;9.82;;;2.30;;
76157;SDS011;64907;51.574;6.502;2023-04-25T08:42:55;9.70;;;2.20;;
76157;SDS011;64907;51.574;6.502;2023-04-25T08:45:21;8.55;;;2.15;;
76157;SDS011;64907;51.574;6.502;2023-04-25T08:47:47;7.60;;;1.90;;
76157;SDS011;64907;51.574;6.502;2023-04-25T08:50:13;20.13;;;2.50;;
76157;SDS011;64907;51.574;6.502;2023-04-25T08:52:43;12.70;;;2.20;;
76157;SDS011;64907;51.574;6.502;2023-04-25T08:55:08;11.10;;;2.40;;
76157;SDS011;64907;51.574;6.502;2023-04-25T08:57:34;10.50;;;2.53;;
76157;SDS011;64907;51.574;6.502;2023-04-25T08:59:59;3.92;;;2.20;;
76157;SDS011;64907;51.574;6.502;2023-04-25T09:02:26;6.60;;;2.42;;
76157;SDS011;64907;51.574;6.502;2023-04-25T09:04:51;6.65;;;2.40;;
76157;SDS011;64907;51.574;6.502;2023-04-25T09:07:16;10.15;;;2.22;;
76157;SDS011;64907;51.574;6.502;2023-04-25T09:09:45;5.85;;;2.13;;
76157;SDS011;64907;51.574;6.502;2023-04-25T09:12:11;6.90;;;2.40;;
76157;SDS011;64907;51.574;6.502;2023-04-25T09:14:36;5.72;;;2.30;;
76157;SDS011;64907;51.574;6.502;2023-04-25T09:17:04;5.93;;;2.17;;
76157;SDS011;64907;51.574;6.502;2023-04-25T09:19:33;4.70;;;1.83;;
76157;SDS011;64907;51.574;6.502;2023-04-25T09:22:01;10.50;;;2.47;;
76157;SDS011;64907;51.574;6.502;2023-04-25T09:26:58;8.85;;;2.42;;
76157;SDS011;64907;51.574;6.502;2023-04-25T09:29:34;7.78;;;2.22;;
76157;SDS011;64907;51.574;6.502;2023-04-25T09:34:41;7.43;;;2.25;;
76157;SDS011;64907;51.574;6.502;2023-04-25T09:37:10;6.40;;;2.03;;
76157;SDS011;64907;51.574;6.502;2023-04-25T09:39:38;6.03;;;1.80;;
76157;SDS011;64907;51.574;6.502;2023-04-25T09:42:04;4.05;;;1.85;;
76157;SDS011;64907;51.574;6.502;2023-04-25T09:44:30;4.90;;;1.75;;
76157;SDS011;64907;51.574;6.502;2023-04-25T09:46:55;4.68;;;1.50;;
76157;SDS011;64907;51.574;6.502;2023-04-25T09:49:20;6.68;;;2.10;;
76157;SDS011;64907;51.574;6.502;2023-04-25T09:51:56;7.15;;;2.20;;
76157;SDS011;64907;51.574;6.502;2023-04-25T09:54:22;7.72;;;2.20;;
76157;SDS011;64907;51.574;6.502;2023-04-25T09:56:48;3.30;;;1.73;;
76157;SDS011;64907;51.574;6.502;2023-04-25T09:59:13;4.97;;;2.03;;
76157;SDS011;64907;51.574;6.502;2023-04-25T10:01:39;7.57;;;2.08;;
76157;SDS011;64907;51.574;6.502;2023-04-25T10:04:05;6.60;;;1.80;;
76157;SDS011;64907;51.574;6.502;2023-04-25T10:06:31;4.22;;;1.70;;
76157;SDS011;64907;51.574;6.502;2023-04-25T10:08:59;4.95;;;2.28;;
76157;SDS011;64907;51.574;6.502;2023-04-25T10:11:25;5.22;;;2.00;;
76157;SDS011;64907;51.574;6.502;2023-04-25T10:13:51;3.83;;;2.30;;
76157;SDS011;64907;51.574;6.502;2023-04-25T10:16:16;5.30;;;2.00;;
76157;SDS011;64907;51.574;6.502;2023-04-25T10:18:41;3.88;;;2.28;;
76157;SDS011;64907;51.574;6.502;2023-04-25T10:21:07;3.43;;;1.90;;
76157;SDS011;64907;51.574;6.502;2023-04-25T10:23:32;1.98;;;1.67;;
76157;SDS011;64907;51.574;6.502;2023-04-25T10:25:59;3.35;;;1.60;;
76157;SDS011;64907;51.574;6.502;2023-04-25T10:28:25;7.40;;;2.13;;
76157;SDS011;64907;51.574;6.502;2023-04-25T10:31:03;5.50;;;1.73;;
76157;SDS011;64907;51.574;6.502;2023-04-25T10:33:38;5.00;;;1.77;;
76157;SDS011;64907;51.574;6.502;2023-04-25T10:36:21;4.97;;;1.95;;
76157;SDS011;64907;51.574;6.502;2023-04-25T10:38:47;5.22;;;1.65;;
76157;SDS011;64907;51.574;6.502;2023-04-25T10:41:13;3.22;;;1.60;;
76157;SDS011;64907;51.574;6.502;2023-04-25T10:43:40;3.42;;;1.50;;
76157;SDS011;64907;51.574;6.502;2023-04-25T10:46:24;3.20;;;1.58;;
76157;SDS011;64907;51.574;6.502;2023-04-25T10:48:50;4.50;;;1.70;;
76157;SDS011;64907;51.574;6.502;2023-04-25T10:53:41;3.30;;;1.50;;
76157;SDS011;64907;51.574;6.502;2023-04-25T10:58:41;5.88;;;2.13;;
76157;SDS011;64907;51.574;6.502;2023-04-25T11:01:06;3.72;;;1.80;;
76157;SDS011;64907;51.574;6.502;2023-04-25T11:03:31;7.85;;;2.40;;
76157;SDS011;64907;51.574;6.502;2023-04-25T11:05:57;8.32;;;2.53;;
76157;SDS011;64907;51.574;6.502;2023-04-25T11:08:37;5.03;;;2.03;;
76157;SDS011;64907;51.574;6.502;2023-04-25T11:11:10;4.63;;;2.03;;
76157;SDS011;64907;51.574;6.502;2023-04-25T11:13:35;7.90;;;2.58;;
76157;SDS011;64907;51.574;6.502;2023-04-25T11:16:00;9.83;;;3.00;;
76157;SDS011;64907;51.574;6.502;2023-04-25T11:18:26;6.65;;;2.30;;
76157;SDS011;64907;51.574;6.502;2023-04-25T11:20:52;4.93;;;2.15;;
76157;SDS011;64907;51.574;6.502;2023-04-25T11:23:17;5.57;;;2.38;;
76157;SDS011;64907;51.574;6.502;2023-04-25T11:25:42;3.47;;;1.95;;
76157;SDS011;64907;51.574;6.502;2023-04-25T11:28:07;5.43;;;1.90;;
76157;SDS011;64907;51.574;6.502;2023-04-25T11:30:38;4.57;;;2.13;;
76157;SDS011;64907;51.574;6.502;2023-04-25T11:33:03;3.20;;;2.15;;
76157;SDS011;64907;51.574;6.502;2023-04-25T11:35:28;6.80;;;2.10;;
76157;SDS011;64907;51.574;6.502;2023-04-25T11:37:53;4.23;;;1.83;;
76157;SDS011;64907;51.574;6.502;2023-04-25T11:40:18;4.25;;;1.60;;
76157;SDS011;64907;51.574;6.502;2023-04-25T11:42:45;6.78;;;2.10;;
76157;SDS011;64907;51.574;6.502;2023-04-25T11:45:10;8.35;;;2.30;;
76157;SDS011;64907;51.574;6.502;2023-04-25T11:47:36;4.55;;;1.77;;
76157;SDS011;64907;51.574;6.502;2023-04-25T11:50:03;4.22;;;1.52;;
76157;SDS011;64907;51.574;6.502;2023-04-25T11:52:35;5.60;;;1.70;;
76157;SDS011;64907;51.574;6.502;2023-04-25T11:55:00;3.17;;;1.40;;
76157;SDS011;64907;51.574;6.502;2023-04-25T11:57:25;2.20;;;1.08;;
76157;SDS011;64907;51.574;6.502;2023-04-25T11:59:51;2.45;;;0.90;;
76157;SDS011;64907;51.574;6.502;2023-04-25T12:02:25;1.23;;;0.80;;
76157;SDS011;64907;51.574;6.502;2023-04-25T12:04:51;4.85;;;1.10;;
76157;SDS011;64907;51.574;6.502;2023-04-25T12:07:16;1.75;;;1.05;;
76157;SDS011;64907;51.574;6.502;2023-04-25T12:09:43;2.08;;;1.10;;
76157;SDS011;64907;51.574;6.502;2023-04-25T12:12:16;1.20;;;0.85;;
76157;SDS011;64907;51.574;6.502;2023-04-25T12:14:47;0.82;;;0.82;;
76157;SDS011;64907;51.574;6.502;2023-04-25T12:17:16;1.20;;;1.10;;
76157;SDS011;64907;51.574;6.502;2023-04-25T12:19:41;4.50;;;1.55;;
76157;SDS011;64907;51.574;6.502;2023-04-25T12:22:19;2.45;;;1.35;;
76157;SDS011;64907;51.574;6.502;2023-04-25T12:24:45;3.92;;;1.40;;
76157;SDS011;64907;51.574;6.502;2023-04-25T12:27:10;4.63;;;2.15;;
76157;SDS011;64907;51.574;6.502;2023-04-25T12:29:35;3.53;;;1.30;;
76157;SDS011;64907;51.574;6.502;2023-04-25T12:32:00;4.40;;;1.70;;
76157;SDS011;64907;51.574;6.502;2023-04-25T12:34:29;1.92;;;1.50;;
76157;SDS011;64907;51.574;6.502;2023-04-25T12:36:57;4.57;;;2.03;;
76157;SDS011;64907;51.574;6.502;2023-04-25T12:39:23;5.07;;;1.60;;
76157;SDS011;64907;51.574;6.502;2023-04-25T12:41:49;4.85;;;1.70;;
76157;SDS011;64907;51.574;6.502;2023-04-25T12:44:14;7.50;;;2.20;;
76157;SDS011;64907;51.574;6.502;2023-04-25T12:46:40;7.03;;;1.77;;
76157;SDS011;64907;51.574;6.502;2023-04-25T12:49:08;3.75;;;1.38;;
76157;SDS011;64907;51.574;6.502;2023-04-25T12:51:34;4.20;;;1.63;;
76157;SDS011;64907;51.574;6.502;2023-04-25T12:54:00;2.75;;;1.77;;
76157;SDS011;64907;51.574;6.502;2023-04-25T12:56:25;3.35;;;1.60;;
76157;SDS011;64907;51.574;6.502;2023-04-25T12:58:52;2.25;;;1.80;;
76157;SDS011;64907;51.574;6.502;2023-04-25T13:01:18;4.45;;;1.73;;
76157;SDS011;64907;51.574;6.502;2023-04-25T13:03:44;2.33;;;1.50;;
76157;SDS011;64907;51.574;6.502;2023-04-25T13:06:09;5.05;;;1.60;;
76157;SDS011;64907;51.574;6.502;2023-04-25T13:08:35;2.63;;;1.45;;
76157;SDS011;64907;51.574;6.502;2023-04-25T13:11:01;2.22;;;1.35;;
76157;SDS011;64907;51.574;6.502;2023-04-25T13:13:26;2.60;;;1.33;;
76157;SDS011;64907;51.574;6.502;2023-04-25T13:15:52;4.97;;;1.30;;
76157;SDS011;64907;51.574;6.502;2023-04-25T13:18:17;3.08;;;1.40;;
76157;SDS011;64907;51.574;6.502;2023-04-25T13:20:42;3.03;;;1.42;;
76157;SDS011;64907;51.574;6.502;2023-04-25T13:23:09;2.27;;;1.50;;
76157;SDS011;64907;51.574;6.502;2023-04-25T13:25:34;3.65;;;1.88;;
76157;SDS011;64907;51.574;6.502;2023-04-25T13:28:00;2.20;;;1.10;;
76157;SDS011;64907;51.574;6.502;2023-04-25T13:30:25;3.27;;;1.20;;
76157;SDS011;64907;51.574;6.502;2023-04-25T13:32:50;4.88;;;1.42;;
76157;SDS011;64907;51.574;6.502;2023-04-25T13:35:16;2.35;;;1.17;;
76157;SDS011;64907;51.574;6.502;2023-04-25T13:37:43;1.85;;;1.00;;
76157;SDS011;64907;51.574;6.502;2023-04-25T13:40:09;2.70;;;1.33;;
76157;SDS011;64907;51.574;6.502;2023-04-25T13:42:38;2.10;;;1.20;;
76157;SDS011;64907;51.574;6.502;2023-04-25T13:45:03;3.42;;;1.38;;
76157;SDS011;64907;51.574;6.502;2023-04-25T13:47:29;3.92;;;1.65;;
76157;SDS011;64907;51.574;6.502;2023-04-25T13:49:55;4.53;;;1.10;;
76157;SDS011;64907;51.574;6.502;2023-04-25T13:52:20;2.28;;;1.00;;
76157;SDS011;64907;51.574;6.502;2023-04-25T13:54:45;4.10;;;0.90;;
76157;SDS011;64907;51.574;6.502;2023-04-25T13:57:11;4.60;;;1.35;;
76157;SDS011;64907;51.574;6.502;2023-04-25T13:59:36;4.70;;;1.20;;
76157;SDS011;64907;51.574;6.502;2023-04-25T14:02:01;3.00;;;2.05;;
76157;SDS011;64907;51.574;6.502;2023-04-25T14:04:27;6.35;;;1.50;;
76157;SDS011;64907;51.574;6.502;2023-04-25T14:06:52;6.20;;;1.40;;
76157;SDS011;64907;51.574;6.502;2023-04-25T14:09:18;6.85;;;1.75;;
76157;SDS011;64907;51.574;6.502;2023-04-25T14:11:44;3.00;;;1.35;;
76157;SDS011;64907;51.574;6.502;2023-04-25T14:14:09;2.20;;;1.38;;
76157;SDS011;64907;51.574;6.502;2023-04-25T14:16:36;4.30;;;1.48;;
76157;SDS011;64907;51.574;6.502;2023-04-25T14:19:01;4.45;;;1.77;;
76157;SDS011;64907;51.574;6.502;2023-04-25T14:21:27;2.83;;;1.35;;
76157;SDS011;64907;51.574;6.502;2023-04-25T14:23:53;2.38;;;1.38;;
76157;SDS011;64907;51.574;6.502;2023-04-25T14:26:19;3.78;;;1.42;;
76157;SDS011;64907;51.574;6.502;2023-04-25T14:28:44;3.05;;;1.30;;
76157;SDS011;64907;51.574;6.502;2023-04-25T14:31:10;3.25;;;1.40;;
76157;SDS011;64907;51.574;6.502;2023-04-25T14:33:35;2.05;;;1.13;;
76157;SDS011;64907;51.574;6.502;2023-04-25T14:36:02;2.47;;;1.55;;
76157;SDS011;64907;51.574;6.502;2023-04-25T14:38:27;4.65;;;1.25;;
76157;SDS011;64907;51.574;6.502;2023-04-25T14:40:52;5.18;;;1.58;;
76157;SDS011;64907;51.574;6.502;2023-04-25T14:43:20;8.02;;;1.92;;